Terminal Aerodrome Forecast
Issued by NWS

Current Version | Previous Version | Graphics & Text | Print | Product List | Glossary On
Versions: 1 2 3 4 5 6 7 8 9 10 11 12 13 14 15 16 17 18 19 20 21 22 23 24 25 26
000
FTUS41 KRLX 270500
TAFCKB
TAF
KCKB 270533Z 2706/2806 00000KT 6SM BR OVC006
     FM270900 00000KT 6SM BR OVC010
     FM271200 00000KT 6SM BR OVC015
     FM271600 28006KT P6SM OVC020
     FM271800 27007KT P6SM OVC025
     FM280500 27006KT P6SM BKN020=

USA.gov is the U.S. government's official web portal to all federal, state and local government web resources and services.